createdAt,value
2023-02-22T00:00:43.117Z,0.99
2023-02-22T00:03:25.618Z,0.88
2023-02-22T00:05:58.532Z,0.95
2023-02-22T00:08:30.594Z,0.96
2023-02-22T00:10:58.559Z,0.96
2023-02-22T00:13:25.733Z,0.96
2023-02-22T00:15:52.624Z,1.01
2023-02-22T00:18:19.737Z,0.99
2023-02-22T00:20:46.723Z,1.03
2023-02-22T00:23:19.020Z,0.99
2023-02-22T00:25:50.337Z,1.04
2023-02-22T00:28:18.997Z,1.05
2023-02-22T00:30:46.259Z,1.04
2023-02-22T00:33:13.974Z,1.00
2023-02-22T00:35:41.674Z,0.97
2023-02-22T00:38:08.607Z,0.88
2023-02-22T00:40:35.734Z,0.82
2023-02-22T00:43:04.525Z,0.75
2023-02-22T00:45:32.962Z,0.67
2023-02-22T00:48:00.498Z,0.61
2023-02-22T00:50:29.583Z,0.54
2023-02-22T00:52:57.666Z,0.52
2023-02-22T00:55:28.139Z,0.52
2023-02-22T00:57:55.849Z,0.51
2023-02-22T01:00:32.431Z,0.51
2023-02-22T01:02:59.712Z,0.51
2023-02-22T01:05:29.247Z,0.46
2023-02-22T01:07:57.923Z,0.38
2023-02-22T01:10:26.364Z,0.32
2023-02-22T01:12:54.537Z,0.31
2023-02-22T01:15:23.368Z,0.30
2023-02-22T01:17:52.007Z,0.30
2023-02-22T01:20:20.403Z,0.29
2023-02-22T01:22:48.500Z,0.26
2023-02-22T01:25:19.411Z,0.23
2023-02-22T01:27:46.432Z,0.26
2023-02-22T01:30:14.649Z,0.30
2023-02-22T01:32:42.419Z,0.33
2023-02-22T01:35:13.741Z,0.34
2023-02-22T01:37:41.519Z,0.36
2023-02-22T01:40:10.125Z,0.37
2023-02-22T01:42:37.247Z,0.42
2023-02-22T01:45:43.911Z,0.43
2023-02-22T01:48:28.592Z,0.48
2023-02-22T01:51:01.808Z,0.46
2023-02-22T01:53:34.298Z,0.44
2023-02-22T01:56:01.686Z,0.44
2023-02-22T01:58:30.806Z,0.48
2023-02-22T02:00:57.946Z,0.53
2023-02-22T02:03:29.095Z,0.58
2023-02-22T02:06:00.124Z,0.61
2023-02-22T02:08:49.831Z,0.65
2023-02-22T02:11:20.210Z,0.67
2023-02-22T02:13:51.139Z,0.70
2023-02-22T02:16:18.227Z,0.74
2023-02-22T02:18:45.036Z,0.75
2023-02-22T02:21:32.048Z,0.76
2023-02-22T02:24:39.772Z,0.77
2023-02-22T02:27:19.520Z,0.78
2023-02-22T02:30:26.142Z,0.76
2023-02-22T02:33:16.759Z,0.75
2023-02-22T02:36:01.322Z,0.69
2023-02-22T02:38:56.185Z,0.66
2023-02-22T02:41:28.077Z,0.68
2023-02-22T02:43:57.662Z,0.74
2023-02-22T02:46:47.336Z,0.72
2023-02-22T02:49:22.437Z,0.71
2023-02-22T02:51:53.887Z,0.70
2023-02-22T02:54:21.965Z,0.70
2023-02-22T02:56:52.555Z,0.67
2023-02-22T02:59:32.686Z,0.65
2023-02-22T03:02:24.129Z,0.64
2023-02-22T03:05:16.582Z,0.63
2023-02-22T03:08:14.895Z,0.64
2023-02-22T03:11:01.816Z,0.63
2023-02-22T03:13:51.360Z,0.64
2023-02-22T03:16:46.334Z,0.64
2023-02-22T03:19:28.496Z,0.66
2023-02-22T03:22:14.106Z,0.67
2023-02-22T03:24:56.084Z,0.68
2023-02-22T03:27:31.959Z,0.70
2023-02-22T03:30:05.777Z,0.73
2023-02-22T03:32:37.168Z,0.73
2023-02-22T03:35:13.109Z,0.76
2023-02-22T03:37:42.870Z,0.77
2023-02-22T03:40:14.357Z,0.79
2023-02-22T03:42:52.957Z,0.83
2023-02-22T03:45:24.864Z,0.80
2023-02-22T03:48:01.042Z,0.76
2023-02-22T03:50:35.627Z,0.74
2023-02-22T03:53:04.660Z,0.75
2023-02-22T03:55:34.623Z,0.78
2023-02-22T03:58:09.680Z,0.76
2023-02-22T04:00:37.824Z,0.77
2023-02-22T04:03:05.414Z,0.78
2023-02-22T04:09:34.629Z,0.86
2023-02-22T04:12:01.963Z,0.86
2023-02-22T04:14:32.528Z,0.85
2023-02-22T04:16:59.819Z,0.83
2023-02-22T04:19:26.975Z,0.83
2023-02-22T04:22:27.731Z,0.84
2023-02-22T04:24:54.739Z,0.85
2023-02-22T04:27:22.131Z,0.88
2023-02-22T04:29:49.308Z,0.91
2023-02-22T04:32:16.457Z,0.92
2023-02-22T04:34:43.429Z,0.98
2023-02-22T04:37:10.518Z,1.02
2023-02-22T04:39:37.465Z,1.02
2023-02-22T04:42:05.132Z,1.03
2023-02-22T04:44:33.016Z,1.04
2023-02-22T04:46:59.956Z,1.07
2023-02-22T04:49:26.882Z,1.09
2023-02-22T04:51:55.730Z,1.10
2023-02-22T04:54:27.664Z,1.11
2023-02-22T04:56:54.653Z,1.10
2023-02-22T04:59:22.475Z,1.10
2023-02-22T05:01:55.322Z,1.05
2023-02-22T05:04:22.241Z,1.04
2023-02-22T05:06:49.223Z,1.03
2023-02-22T05:09:16.221Z,1.04
2023-02-22T05:11:43.016Z,1.04
2023-02-22T05:14:09.952Z,1.01
2023-02-22T05:16:37.081Z,1.00
2023-02-22T05:19:04.699Z,1.01
2023-02-22T05:21:31.449Z,0.99
2023-02-22T05:23:58.582Z,1.00
2023-02-22T05:26:25.423Z,0.98
2023-02-22T05:28:52.285Z,0.95
2023-02-22T05:31:19.725Z,0.91
2023-02-22T05:33:48.580Z,0.92
2023-02-22T05:36:16.826Z,0.84
2023-02-22T05:38:44.823Z,0.74
2023-02-22T05:41:13.475Z,0.75
2023-02-22T05:43:41.161Z,0.80
2023-02-22T05:46:08.648Z,0.82
2023-02-22T05:48:35.571Z,0.85
2023-02-22T05:51:03.930Z,0.91
2023-02-22T05:53:30.917Z,0.95
2023-02-22T05:55:57.832Z,0.99
2023-02-22T05:58:24.625Z,0.96
2023-02-22T06:00:51.510Z,0.93
2023-02-22T06:03:18.430Z,0.78
2023-02-22T06:05:45.384Z,0.84
2023-02-22T06:08:12.263Z,0.85
2023-02-22T06:10:39.260Z,0.86
2023-02-22T06:13:06.531Z,0.88
2023-02-22T06:15:33.673Z,0.92
2023-02-22T06:18:01.249Z,0.95
2023-02-22T06:20:29.669Z,0.93
2023-02-22T06:22:58.601Z,0.92
2023-02-22T06:25:28.269Z,0.91
2023-02-22T06:27:55.089Z,0.96
2023-02-22T06:30:24.238Z,0.98
2023-02-22T06:32:51.440Z,0.96
2023-02-22T06:35:18.883Z,0.98
2023-02-22T06:37:46.335Z,1.05
2023-02-22T06:40:13.738Z,1.11
2023-02-22T06:42:40.887Z,1.16
2023-02-22T06:45:11.411Z,1.16
2023-02-22T06:47:40.507Z,1.21
2023-02-22T06:50:09.159Z,1.22
2023-02-22T06:52:36.034Z,1.24
2023-02-22T06:55:02.996Z,1.19
2023-02-22T06:57:29.829Z,1.25
2023-02-22T06:59:57.502Z,1.28
2023-02-22T07:02:24.323Z,1.20
2023-02-22T07:04:51.239Z,1.27
2023-02-22T07:07:18.442Z,1.30
2023-02-22T07:09:47.010Z,1.33
2023-02-22T07:12:14.186Z,1.43
2023-02-22T07:14:41.157Z,1.51
2023-02-22T07:17:08.048Z,1.56
2023-02-22T07:19:34.860Z,1.49
2023-02-22T07:22:01.721Z,1.47
2023-02-22T07:24:28.692Z,1.56
2023-02-22T07:26:55.710Z,1.66
2023-02-22T07:29:22.681Z,1.75
2023-02-22T07:31:49.756Z,1.79
2023-02-22T07:34:16.690Z,1.81
2023-02-22T07:36:43.761Z,1.89
2023-02-22T07:39:11.225Z,1.95
2023-02-22T07:41:38.181Z,1.92
2023-02-22T07:44:14.419Z,1.92
2023-02-22T07:46:41.270Z,2.00
2023-02-22T07:49:08.112Z,2.04
2023-02-22T07:51:35.027Z,2.13
2023-02-22T07:54:01.854Z,2.16
2023-02-22T07:56:28.667Z,2.17
2023-02-22T07:58:55.537Z,2.19
2023-02-22T08:01:22.374Z,2.24
2023-02-22T08:03:49.438Z,2.30
2023-02-22T08:06:16.578Z,2.37
2023-02-22T08:08:43.550Z,2.40
2023-02-22T08:11:13.706Z,2.47
2023-02-22T08:13:40.632Z,2.51
2023-02-22T08:16:07.587Z,2.56
2023-02-22T08:18:34.430Z,2.61
2023-02-22T08:21:01.399Z,2.59
2023-02-22T08:23:28.325Z,2.60
2023-02-22T08:25:55.608Z,2.68
2023-02-22T08:28:24.397Z,2.75
2023-02-22T08:30:51.693Z,2.79
2023-02-22T08:33:19.945Z,2.87
2023-02-22T08:35:49.867Z,2.88
2023-02-22T08:38:27.241Z,2.86
2023-02-22T08:40:54.677Z,2.95
2023-02-22T08:43:22.377Z,2.87
2023-02-22T08:45:49.843Z,2.98
2023-02-22T08:48:17.491Z,3.02
2023-02-22T08:50:44.643Z,3.07
2023-02-22T08:53:13.745Z,3.08
2023-02-22T08:55:42.036Z,3.14
2023-02-22T08:58:09.634Z,3.11
2023-02-22T09:00:38.952Z,3.10
2023-02-22T09:03:09.166Z,3.16
2023-02-22T09:05:36.453Z,3.24
2023-02-22T09:08:03.642Z,3.29
2023-02-22T09:10:32.565Z,3.38
2023-02-22T09:13:01.516Z,3.44
2023-02-22T09:15:29.318Z,3.50
2023-02-22T09:17:56.472Z,3.54
2023-02-22T09:20:24.620Z,3.55
2023-02-22T09:22:51.949Z,3.60
2023-02-22T09:25:20.846Z,3.62
2023-02-22T09:27:49.160Z,3.58
2023-02-22T09:30:19.101Z,3.59
2023-02-22T09:32:46.257Z,3.64
2023-02-22T09:35:13.385Z,3.38
2023-02-22T09:37:40.332Z,2.90
2023-02-22T09:40:10.029Z,3.12
2023-02-22T09:42:46.118Z,3.25
2023-02-22T09:45:23.902Z,3.42
2023-02-22T09:48:08.063Z,3.46
2023-02-22T09:50:43.511Z,3.50
2023-02-22T09:53:43.890Z,3.45
2023-02-22T09:56:18.395Z,3.27
2023-02-22T09:58:47.901Z,3.28
2023-02-22T10:01:39.254Z,3.03
2023-02-22T10:04:37.345Z,2.93
2023-02-22T10:07:26.683Z,2.97
2023-02-22T10:09:57.740Z,2.92
2023-02-22T10:12:49.329Z,2.96
2023-02-22T10:15:47.620Z,2.98
2023-02-22T10:18:48.356Z,3.07
2023-02-22T10:21:48.658Z,2.94
2023-02-22T10:24:49.417Z,2.80
2023-02-22T10:27:20.433Z,2.96
2023-02-22T10:29:51.407Z,2.99
2023-02-22T10:32:26.443Z,2.85
2023-02-22T10:34:54.832Z,2.87
2023-02-22T10:37:28.519Z,2.79
2023-02-22T10:40:20.477Z,2.40
2023-02-22T10:42:47.670Z,2.47
2023-02-22T10:45:22.605Z,2.42
2023-02-22T10:47:50.697Z,2.53
2023-02-22T10:50:18.309Z,2.54
2023-02-22T10:52:45.239Z,2.71
2023-02-22T10:55:16.450Z,2.79
2023-02-22T10:57:48.409Z,2.76
2023-02-22T11:00:26.517Z,2.83
2023-02-22T11:02:59.336Z,2.76
2023-02-22T11:05:36.967Z,2.74
2023-02-22T11:08:25.720Z,2.63
2023-02-22T11:10:55.844Z,2.48
2023-02-22T11:13:31.213Z,2.42
2023-02-22T11:16:23.035Z,2.36
2023-02-22T11:18:50.077Z,2.43
2023-02-22T11:21:22.893Z,2.18
2023-02-22T11:23:50.545Z,1.93
2023-02-22T11:26:20.764Z,1.70
2023-02-22T11:28:50.487Z,1.66
2023-02-22T11:31:21.777Z,1.58
2023-02-22T11:36:40.969Z,1.56
2023-02-22T11:39:28.957Z,1.35
2023-02-22T11:41:56.974Z,1.45
2023-02-22T11:44:30.231Z,1.64
2023-02-22T11:47:01.550Z,1.68
2023-02-22T11:49:36.644Z,1.78
2023-02-22T11:52:28.435Z,1.98
2023-02-22T11:55:41.265Z,1.99
2023-02-22T11:58:34.803Z,2.10
2023-02-22T12:01:17.619Z,2.10
2023-02-22T12:04:16.034Z,2.17
2023-02-22T12:06:59.064Z,1.96
2023-02-22T12:09:54.502Z,1.69
2023-02-22T12:12:38.705Z,1.83
2023-02-22T12:15:15.178Z,2.03
2023-02-22T12:18:09.456Z,1.94
2023-02-22T12:20:45.785Z,2.16
2023-02-22T12:23:30.186Z,2.15
2023-02-22T12:26:05.807Z,2.23
2023-02-22T12:28:37.052Z,2.13
2023-02-22T12:31:10.540Z,2.19
2023-02-22T12:33:49.663Z,2.24
2023-02-22T12:36:20.996Z,2.31
2023-02-22T12:38:53.235Z,2.27
2023-02-22T12:41:38.467Z,2.16
2023-02-22T12:44:20.314Z,2.25
2023-02-22T12:46:50.178Z,2.42
2023-02-22T12:49:28.759Z,2.45
2023-02-22T12:52:35.449Z,2.54
2023-02-22T12:55:23.600Z,2.59
2023-02-22T12:58:18.315Z,2.89
2023-02-22T13:01:07.374Z,3.08
2023-02-22T13:03:42.286Z,3.14
2023-02-22T13:06:42.729Z,3.19
2023-02-22T13:09:43.080Z,3.00
2023-02-22T13:12:37.678Z,3.13
2023-02-22T13:15:24.391Z,3.22
2023-02-22T13:18:08.836Z,3.09
2023-02-22T13:20:44.863Z,3.03
2023-02-22T13:23:48.937Z,2.81
2023-02-22T13:26:25.467Z,2.49
2023-02-22T13:29:02.921Z,2.49
2023-02-22T13:31:51.257Z,2.62
2023-02-22T13:34:50.977Z,2.52
2023-02-22T13:37:49.349Z,2.44
2023-02-22T13:40:45.857Z,2.27
2023-02-22T13:43:52.596Z,2.21
2023-02-22T13:46:41.805Z,2.25
2023-02-22T13:49:34.849Z,2.32
2023-02-22T13:52:03.851Z,2.18
2023-02-22T13:54:54.716Z,2.29
2023-02-22T13:57:32.035Z,2.32
2023-02-22T14:00:21.401Z,2.25
2023-02-22T14:03:30.165Z,2.26
2023-02-22T14:06:01.042Z,2.46
2023-02-22T14:08:43.670Z,2.33
2023-02-22T14:11:43.133Z,2.23
2023-02-22T14:14:12.133Z,2.36
2023-02-22T14:16:39.290Z,2.33
2023-02-22T14:19:14.774Z,2.25
2023-02-22T14:22:02.649Z,2.26
2023-02-22T14:24:51.220Z,2.00
2023-02-22T14:27:18.508Z,2.04
2023-02-22T14:29:54.774Z,1.98
2023-02-22T14:32:31.478Z,1.96
2023-02-22T14:35:01.148Z,1.96
2023-02-22T14:37:32.042Z,1.99
2023-02-22T14:40:13.025Z,1.90
2023-02-22T14:42:44.677Z,1.78
2023-02-22T14:45:28.419Z,1.81
2023-02-22T14:48:33.690Z,1.67
2023-02-22T14:51:15.600Z,1.73
2023-02-22T14:53:54.389Z,1.79
2023-02-22T14:56:23.621Z,1.68
2023-02-22T14:59:19.880Z,1.67
2023-02-22T15:01:58.688Z,1.65
2023-02-22T15:04:33.055Z,1.60
2023-02-22T15:07:01.684Z,1.72
2023-02-22T15:09:34.738Z,1.69
2023-02-22T15:12:18.302Z,1.69
2023-02-22T15:14:47.761Z,1.62
2023-02-22T15:17:21.018Z,1.67
2023-02-22T15:19:48.969Z,1.66
2023-02-22T15:22:22.425Z,1.72
2023-02-22T15:25:02.204Z,1.50
2023-02-22T15:27:29.281Z,1.44
2023-02-22T15:30:04.960Z,1.36
2023-02-22T15:32:37.901Z,1.46
2023-02-22T15:35:35.463Z,1.39
2023-02-22T15:38:16.356Z,1.48
2023-02-22T15:40:45.331Z,1.36
2023-02-22T15:43:20.083Z,1.40
2023-02-22T15:45:47.564Z,1.27
2023-02-22T15:48:15.892Z,1.01
2023-02-22T15:51:07.255Z,0.95
2023-02-22T15:53:53.582Z,1.01
2023-02-22T15:56:30.033Z,0.86
2023-02-22T15:59:18.486Z,0.91
2023-02-22T16:01:47.554Z,0.91
2023-02-22T16:04:20.097Z,0.85
2023-02-22T16:06:47.497Z,0.98
2023-02-22T16:09:25.508Z,0.95
2023-02-22T16:12:09.613Z,0.82
2023-02-22T16:14:42.866Z,0.80
2023-02-22T16:17:37.847Z,0.91
2023-02-22T16:20:33.009Z,0.74
2023-02-22T16:23:00.299Z,0.65
2023-02-22T16:25:33.136Z,0.52
2023-02-22T16:28:03.234Z,0.48
2023-02-22T16:30:38.158Z,0.29
2023-02-22T16:33:13.502Z,0.33
2023-02-22T16:35:41.109Z,0.28
2023-02-22T16:38:17.134Z,0.30
2023-02-22T16:40:52.452Z,0.38
2023-02-22T16:43:22.266Z,0.40
2023-02-22T16:45:49.483Z,0.45
2023-02-22T16:48:22.283Z,0.41
2023-02-22T16:50:51.363Z,0.50
2023-02-22T16:53:21.387Z,0.59
2023-02-22T16:55:48.866Z,0.52
2023-02-22T16:58:17.270Z,0.56
2023-02-22T17:00:44.441Z,0.59
2023-02-22T17:03:16.044Z,0.59
2023-02-22T17:05:43.382Z,0.70
2023-02-22T17:08:10.255Z,0.80
2023-02-22T17:10:37.373Z,0.88
2023-02-22T17:13:20.325Z,0.86
2023-02-22T17:15:49.299Z,0.84
2023-02-22T17:18:22.556Z,0.89
2023-02-22T17:20:54.469Z,1.01
2023-02-22T17:23:23.428Z,1.01
2023-02-22T17:25:56.429Z,1.06
2023-02-22T17:28:24.988Z,1.15
2023-02-22T17:30:53.425Z,1.19
2023-02-22T17:33:27.757Z,1.25
2023-02-22T17:35:57.871Z,1.33
2023-02-22T17:38:27.064Z,1.35
2023-02-22T17:40:55.006Z,1.35
2023-02-22T17:43:22.149Z,1.35
2023-02-22T17:45:49.462Z,1.34
2023-02-22T17:48:17.889Z,1.34
2023-02-22T17:50:46.536Z,1.30
2023-02-22T17:53:13.854Z,1.27
2023-02-22T17:55:42.137Z,1.25
2023-02-22T17:58:14.895Z,1.26
2023-02-22T18:00:45.777Z,1.24
2023-02-22T18:03:16.263Z,1.21
2023-02-22T18:05:46.263Z,1.20
2023-02-22T18:08:14.872Z,1.16
2023-02-22T18:10:42.725Z,1.16
2023-02-22T18:13:10.435Z,1.15
2023-02-22T18:15:40.028Z,1.17
2023-02-22T18:18:15.692Z,1.18
2023-02-22T18:20:45.132Z,1.18
2023-02-22T18:23:16.222Z,1.17
2023-02-22T18:26:07.595Z,1.15
2023-02-22T18:28:36.982Z,1.16
2023-02-22T18:31:09.364Z,1.14
2023-02-22T18:33:36.637Z,1.14
2023-02-22T18:36:04.732Z,1.11
2023-02-22T18:38:31.730Z,1.12
2023-02-22T18:41:04.032Z,1.12
2023-02-22T18:43:31.942Z,1.15
2023-02-22T18:46:18.784Z,1.12
2023-02-22T18:48:47.301Z,1.14
2023-02-22T18:51:17.232Z,1.13
2023-02-22T18:53:47.128Z,1.10
2023-02-22T18:56:18.033Z,1.09
2023-02-22T18:58:45.211Z,1.09
2023-02-22T19:01:17.593Z,1.07
2023-02-22T19:03:47.338Z,1.05
2023-02-22T19:06:16.165Z,1.04
2023-02-22T19:08:44.652Z,1.03
2023-02-22T19:11:17.968Z,1.04
2023-02-22T19:13:46.976Z,1.05
2023-02-22T19:16:15.505Z,1.04
2023-02-22T19:18:44.463Z,1.00
2023-02-22T19:21:13.097Z,0.97
2023-02-22T19:23:47.737Z,0.94
2023-02-22T19:26:20.485Z,0.95
2023-02-22T19:28:49.117Z,0.96
2023-02-22T19:31:20.116Z,0.93
2023-02-22T19:33:51.598Z,0.92
2023-02-22T19:36:20.412Z,0.91
2023-02-22T19:38:50.177Z,0.90
2023-02-22T19:41:27.902Z,0.90
2023-02-22T19:43:56.499Z,0.91
2023-02-22T19:46:37.328Z,0.90
2023-02-22T19:49:09.190Z,0.89
2023-02-22T19:51:42.202Z,0.88
2023-02-22T19:54:19.482Z,0.85
2023-02-22T19:56:50.883Z,0.88
2023-02-22T19:59:22.783Z,0.88
2023-02-22T20:01:53.617Z,0.86
2023-02-22T20:04:24.302Z,0.86
2023-02-22T20:06:54.918Z,0.85
2023-02-22T20:09:24.453Z,0.81
2023-02-22T20:11:54.457Z,0.83
2023-02-22T20:14:24.811Z,0.83
2023-02-22T20:16:53.599Z,0.82
2023-02-22T20:19:23.429Z,0.82
2023-02-22T20:21:52.515Z,0.81
2023-02-22T20:24:21.645Z,0.78
2023-02-22T20:26:51.322Z,0.78
2023-02-22T20:29:18.229Z,0.76
2023-02-22T20:31:52.476Z,0.76
2023-02-22T20:34:20.574Z,0.76
2023-02-22T20:36:48.011Z,0.76
2023-02-22T20:39:16.807Z,0.73
2023-02-22T20:41:46.650Z,0.70
2023-02-22T20:44:15.737Z,0.65
2023-02-22T20:46:43.510Z,0.63
2023-02-22T20:49:12.954Z,0.58
2023-02-22T20:51:40.599Z,0.56
2023-02-22T20:54:11.515Z,0.53
2023-02-22T20:56:40.871Z,0.51
2023-02-22T20:59:09.020Z,0.52
2023-02-22T21:01:36.663Z,0.51
2023-02-22T21:04:06.439Z,0.51
2023-02-22T21:06:35.697Z,0.52
2023-02-22T21:09:07.293Z,0.56
2023-02-22T21:11:35.031Z,0.59
2023-02-22T21:14:02.165Z,0.61
2023-02-22T21:16:32.395Z,0.63
2023-02-22T21:19:02.105Z,0.64
2023-02-22T21:21:35.348Z,0.62
2023-02-22T21:24:03.458Z,0.62
2023-02-22T21:26:32.188Z,0.62
2023-02-22T21:29:05.006Z,0.61
2023-02-22T21:31:33.172Z,0.61
2023-02-22T21:34:00.982Z,0.58
2023-02-22T21:36:28.915Z,0.55
2023-02-22T21:39:23.060Z,0.53
2023-02-22T21:41:51.641Z,0.57
2023-02-22T21:44:19.083Z,0.59
2023-02-22T21:46:48.878Z,0.58
2023-02-22T21:49:16.254Z,0.59
2023-02-22T21:51:44.983Z,0.62
2023-02-22T21:54:12.329Z,0.62
2023-02-22T21:56:42.694Z,0.64
2023-02-22T21:59:15.600Z,0.64
2023-02-22T22:01:47.944Z,0.64
2023-02-22T22:04:19.001Z,0.67
2023-02-22T22:06:47.927Z,0.66
2023-02-22T22:09:21.981Z,0.66
2023-02-22T22:11:51.697Z,0.67
2023-02-22T22:14:19.881Z,0.68
2023-02-22T22:16:48.446Z,0.67
2023-02-22T22:19:15.624Z,0.66
2023-02-22T22:21:42.545Z,0.65
2023-02-22T22:24:10.400Z,0.65
2023-02-22T22:26:37.807Z,0.67
2023-02-22T22:29:05.244Z,0.69
2023-02-22T22:31:32.882Z,0.68
2023-02-22T22:33:59.822Z,0.67
2023-02-22T22:36:27.404Z,0.64
2023-02-22T22:38:57.598Z,0.62
2023-02-22T22:41:25.218Z,0.61
2023-02-22T22:43:54.165Z,0.57
2023-02-22T22:46:22.293Z,0.54
2023-02-22T22:48:49.143Z,0.53
2023-02-22T22:51:20.328Z,0.49
2023-02-22T22:53:49.011Z,0.45
2023-02-22T22:56:18.989Z,0.39
2023-02-22T22:58:52.084Z,0.32
2023-02-22T23:01:26.904Z,0.30
2023-02-22T23:04:02.375Z,0.24
2023-02-22T23:06:33.132Z,0.20
2023-02-22T23:09:10.399Z,0.17
2023-02-22T23:11:39.703Z,0.16
2023-02-22T23:14:07.122Z,0.15
2023-02-22T23:16:33.994Z,0.13
2023-02-22T23:19:00.822Z,0.14
2023-02-22T23:21:27.855Z,0.12
2023-02-22T23:23:55.985Z,0.11
2023-02-22T23:26:26.646Z,0.08
2023-02-22T23:28:55.781Z,0.01
2023-02-22T23:31:23.484Z,-0.04
2023-02-22T23:33:50.671Z,-0.09
2023-02-22T23:36:18.821Z,-0.15
2023-02-22T23:38:46.185Z,-0.17
2023-02-22T23:41:17.064Z,-0.22
2023-02-22T23:43:45.917Z,-0.19
2023-02-22T23:46:18.668Z,-0.19
2023-02-22T23:48:52.225Z,-0.15
2023-02-22T23:51:25.129Z,-0.13
2023-02-22T23:53:55.768Z,-0.11
2023-02-22T23:56:26.574Z,-0.11
2023-02-22T23:58:57.447Z,-0.08
